Latest Weather Observations for Cape Grim

IDT60801

Issued at 4:31 am EST Monday 24 July 2017 (issued every 30 minutes, with the page automatically refreshed every 10 minutes)

About weather observations | Map of weather stations | Latest weather observations for TAS | Other Formats
Station Details ID: 091331 Name: CAPE GRIM Lat: -40.68 Lon: 144.69 Height: 86.0 m
Data from the previous 72 hours. | See also: Recent months at Cape Grim
Date/Time
EST
Temp
°C
App
Temp
°C
Dew
Point
°C
Rel
Hum
%
Delta-T
°C
Wind Press
QNH
hPa
Press
MSL
hPa
Rain since
9am
mm
Dir  Spd
km/h
Gust
km/h
Spd
kts
Gust
kts
24/04:30am 8.5 1.4 3.4 70 2.2 W 30 50 16 27 1013.8 1013.9 4.0
24/04:21am 8.2 1.4 3.1 70 2.2 W 28 50 15 27 1013.8 1013.9 4.0
24/04:00am 7.5 2.1 4.3 80 1.4 W 22 35 12 19 1013.9 1014.0 4.0
24/03:47am 7.7 1.4 3.7 76 1.7 WSW 26 48 14 26 1014.0 1014.1 4.0
24/03:30am 8.5 1.5 4.3 75 1.8 SW 30 46 16 25 1013.8 1013.9 4.0
24/03:11am 8.1 0.8 4.5 78 1.6 SW 32 50 17 27 1013.7 1013.8 4.0
24/03:00am 7.9 1.4 4.8 81 1.4 SW 28 37 15 20 1013.8 1013.9 4.0
24/02:43am 7.8 1.1 3.8 76 1.7 SW 28 54 15 29 1013.7 1013.8 4.0
24/02:30am 8.5 3.5 4.5 76 1.8 WSW 20 43 11 23 1013.6 1013.7 3.8
24/02:10am 8.0 0.7 4.4 78 1.6 SW 32 50 17 27 1013.5 1013.6 3.8
24/02:00am 7.8 -0.8 4.9 82 1.3 SW 39 52 21 28 1013.5 1013.6 3.8
24/01:48am 7.8 1.3 4.7 81 1.4 WSW 28 44 15 24 1013.3 1013.4 3.8
24/01:43am 7.5 0.3 5.1 85 1.1 SW 32 46 17 25 1013.5 1013.6 3.8
24/01:36am 7.6 1.5 4.9 83 1.2 WSW 26 46 14 25 1013.4 1013.5 3.6
24/01:30am 7.7 2.8 5.2 84 1.1 W 20 32 11 17 1013.4 1013.5 3.6
24/01:00am 7.9 1.0 4.5 79 1.5 SW 30 46 16 25 1013.6 1013.7 3.4
24/12:58am 8.3 0.9 5.2 81 1.4 SW 33 52 18 28 1013.5 1013.6 3.4
24/12:30am 7.8 -0.8 4.7 81 1.4 SW 39 46 21 25 1013.6 1013.7 3.4
24/12:02am 8.3 1.0 4.5 77 1.7 WSW 32 50 17 27 1013.6 1013.7 3.2
24/12:00am 8.5 1.0 4.3 75 1.8 SW 33 50 18 27 1013.6 1013.7 3.0
 
Date/Time
EST
Temp
°C
App
Temp
°C
Dew
Point
°C
Rel
Hum
%
Delta-T
°C
Wind Press
QNH
hPa
Press
MSL
hPa
Rain since
9am
mm
Dir  Spd
km/h
Gust
km/h
Spd
kts
Gust
kts
23/11:33pm 8.8 0.0 3.6 70 2.3 SW 39 57 21 31 1013.1 1013.2 2.8
23/11:30pm 9.1 0.7 3.9 70 2.3 SW 37 48 20 26 1013.1 1013.2 2.8
23/11:00pm 9.3 0.9 3.5 67 2.5 SW 37 56 20 30 1012.9 1013.0 2.8
23/10:49pm 9.0 0.9 3.0 66 2.6 SW 35 56 19 30 1012.9 1013.0 2.8
23/10:30pm 9.1 -0.1 3.3 67 2.5 SW 41 57 22 31 1012.7 1012.8 2.8
23/10:00pm 9.1 -0.6 3.7 69 2.4 SW 44 54 24 29 1012.5 1012.6 2.8
23/09:30pm 8.9 -0.8 2.7 65 2.6 SW 43 54 23 29 1012.0 1012.1 2.8
23/09:00pm 9.1 -0.6 3.1 66 2.6 SW 43 54 23 29 1011.6 1011.7 2.8
23/08:30pm 9.2 -0.7 3.0 65 2.7 SW 44 57 24 31 1011.3 1011.4 2.8
23/08:00pm 9.2 -0.5 4.0 70 2.3 SW 44 57 24 31 1010.9 1011.0 2.8
23/07:30pm 9.1 -0.9 4.5 73 2.0 SW 46 57 25 31 1010.5 1010.6 2.8
23/07:00pm 9.0 -0.8 5.2 77 1.7 SW 46 61 25 33 1010.0 1010.1 2.8
23/06:50pm 9.0 -0.6 6.1 82 1.3 SW 46 65 25 35 1009.8 1009.9 2.8
23/06:30pm 9.3 -1.1 5.9 79 1.6 SW 50 67 27 36 1009.4 1009.5 2.8
23/06:00pm 9.4 -1.0 6.1 80 1.5 SW 50 67 27 36 1008.8 1008.9 2.8
23/05:30pm 9.2 -1.4 6.8 85 1.1 SW 52 65 28 35 1008.3 1008.4 2.8
23/05:00pm 9.6 -1.0 6.7 82 1.4 SW 52 63 28 34 1007.7 1007.7 2.8
23/04:30pm 10.5 0.3 7.0 79 1.7 SW 50 61 27 33 1007.1 1007.1 2.8
23/04:00pm 10.7 0.0 6.6 76 1.9 SW 52 61 28 33 1006.6 1006.6 2.8
23/03:30pm 10.6 2.0 8.0 84 1.3 SW 43 61 23 33 1006.3 1006.3 2.8
23/03:00pm 10.9 2.1 8.0 82 1.4 SW 44 67 24 36 1005.9 1005.9 2.8
23/02:38pm 11.1 2.5 8.1 82 1.5 SW 43 61 23 33 1005.5 1005.6 2.8
23/02:30pm 10.8 2.0 7.9 82 1.4 SW 44 61 24 33 1005.5 1005.6 2.8
23/02:00pm 11.2 2.3 6.9 75 2.1 SW 43 67 23 36 1005.1 1005.2 2.8
23/01:30pm 11.6 2.5 8.3 80 1.6 SW 46 72 25 39 1004.7 1004.8 2.8
23/01:00pm 11.4 2.6 7.3 76 2.0 WSW 43 80 23 43 1004.3 1004.4 2.8
23/12:55pm 11.4 3.4 7.5 77 1.9 WSW 39 78 21 42 1004.3 1004.4 2.8
23/12:30pm 11.4 3.2 8.4 82 1.5 W 41 59 22 32 1004.3 1004.4 2.2
23/12:00pm 11.3 1.9 8.7 84 1.3 W 48 70 26 38 1004.2 1004.3 1.8
23/11:30am 11.6 1.6 7.9 78 1.8 W 50 69 27 37 1004.0 1004.1 1.0
23/11:00am 11.5 1.1 7.8 78 1.8 W 52 76 28 41 1004.1 1004.2 1.0
23/10:30am 10.3 -1.1 7.7 84 1.3 W 57 80 31 43 1004.0 1004.1 1.0
23/10:09am 11.9 2.4 8.2 78 1.8 W 48 67 26 36 1004.0 1004.1 0.4
23/10:00am 11.7 1.9 8.6 81 1.5 W 50 65 27 35 1004.1 1004.2 0.4
23/09:52am 10.9 1.4 8.3 84 1.3 W 48 76 26 41 1004.1 1004.2 0.4
23/09:47am 10.3 -0.2 7.5 83 1.3 W 52 76 28 41 1004.0 1004.1 0.4
23/09:30am 12.2 -0.6 6.3 67 2.8 W 63 82 34 44 1003.9 1004.0 0.0
23/09:10am 12.1 0.5 6.6 69 2.6 W 57 76 31 41 1003.8 1003.9 0.0
23/09:00am 11.9 2.5 7.0 72 2.4 W 46 65 25 35 1004.0 1004.1 3.4
23/08:43am 11.9 0.9 6.8 71 2.4 W 54 72 29 39 1003.9 1004.0 3.4
23/08:30am 11.8 0.4 6.5 70 2.5 W 56 72 30 39 1003.8 1003.9 3.4
23/08:00am 11.0 -0.5 7.1 77 1.9 W 57 78 31 42 1003.7 1003.8 3.4
23/07:30am 11.6 1.3 6.7 72 2.3 W 50 72 27 39 1003.6 1003.7 3.2
23/07:05am 11.5 2.1 7.0 74 2.2 W 46 65 25 35 1003.4 1003.5 3.2
23/07:00am 11.5 1.4 7.2 75 2.1 W 50 65 27 35 1003.4 1003.5 3.2
23/06:30am 11.6 1.5 7.3 75 2.1 W 50 72 27 39 1003.2 1003.3 3.2
23/06:00am 11.5 1.0 7.4 76 2.0 W 52 74 28 40 1003.0 1003.1 3.2
23/05:30am 11.5 0.2 8.0 79 1.7 W 57 80 31 43 1002.8 1002.9 3.2
23/05:00am 11.6 1.5 8.8 83 1.4 W 52 72 28 39 1002.9 1003.0 3.2
23/04:34am 10.5 -0.7 7.4 81 1.5 W 56 74 30 40 1002.9 1003.0 2.8
23/04:30am 12.6 1.2 7.7 72 2.4 WNW 57 74 31 40 1002.8 1002.9 2.2
23/04:00am 12.1 2.5 8.0 76 2.0 W 48 72 26 39 1002.9 1003.0 2.2
23/03:30am 12.5 3.2 9.3 81 1.6 NW 48 70 26 38 1003.0 1003.1 2.2
23/03:01am 12.1 3.7 8.9 81 1.6 NW 43 61 23 33 1003.5 1003.6 2.2
23/03:00am 12.1 3.5 8.9 81 1.6 NW 44 61 24 33 1003.5 1003.6 2.2
23/02:30am 12.0 3.0 9.0 82 1.5 NW 46 61 25 33 1003.9 1004.0 2.2
23/02:18am 11.9 3.5 9.1 83 1.4 NW 43 61 23 33 1004.1 1004.2 2.2
23/02:00am 12.0 3.2 9.6 85 1.2 WNW 46 57 25 31 1004.3 1004.4 2.2
23/01:40am 11.8 2.2 9.4 85 1.2 NW 50 69 27 37 1004.4 1004.5 2.2
23/01:30am 11.8 1.1 9.4 85 1.2 NW 56 70 30 38 1004.4 1004.5 2.2
23/01:01am 11.9 2.8 10.0 88 1.0 NW 48 67 26 36 1004.6 1004.7 2.2
23/01:00am 11.9 2.5 10.0 88 1.0 NW 50 67 27 36 1004.7 1004.8 2.2
23/12:30am 11.9 1.1 9.1 83 1.4 NW 56 76 30 41 1004.9 1005.0 2.2
23/12:00am 12.2 1.1 8.9 80 1.7 NW 57 78 31 42 1005.6 1005.7 0.8
 
Date/Time
EST
Temp
°C
App
Temp
°C
Dew
Point
°C
Rel
Hum
%
Delta-T
°C
Wind Press
QNH
hPa
Press
MSL
hPa
Rain since
9am
mm
Dir  Spd
km/h
Gust
km/h
Spd
kts
Gust
kts
22/11:54pm 12.3 2.2 8.8 79 1.8 NW 52 70 28 38 1005.6 1005.7 0.4
22/11:30pm 12.9 2.3 8.4 74 2.2 NNW 54 70 29 38 1005.2 1005.3 0.2
22/11:26pm 12.8 2.5 8.3 74 2.2 NNW 52 70 28 38 1005.0 1005.1 0.2
22/11:00pm 12.8 1.8 8.3 74 2.2 NNW 56 70 30 38 1005.2 1005.3 0.2
22/10:30pm 12.7 1.1 8.2 74 2.2 NNW 59 72 32 39 1005.6 1005.7 0.2
22/10:01pm 12.7 2.0 8.2 74 2.2 NNW 54 72 29 39 1006.1 1006.1 0.2
22/10:00pm 12.8 2.2 8.5 75 2.2 NNW 54 69 29 37 1006.2 1006.2 0.2
22/09:30pm 12.6 2.3 8.3 75 2.1 NNW 52 65 28 35 1006.6 1006.6 0.2
22/09:00pm 12.6 3.6 8.9 78 1.9 NNW 46 57 25 31 1007.1 1007.1 0.2
22/08:30pm 12.8 3.4 8.9 77 2.0 NNW 48 61 26 33 1007.4 1007.4 0.2
22/08:00pm 12.7 3.7 8.8 77 2.0 NNW 46 54 25 29 1007.7 1007.7 0.2
22/07:30pm 12.7 3.3 8.8 77 2.0 NNW 48 63 26 34 1007.9 1008.0 0.2
22/07:01pm 12.4 5.4 8.5 77 1.9 NW 35 54 19 29 1008.0 1008.1 0.2
22/07:00pm 12.4 5.5 8.7 78 1.9 NW 35 52 19 28 1008.1 1008.2 0.2
22/06:31pm 12.5 4.7 8.4 76 2.0 NW 39 57 21 31 1008.2 1008.3 0.2
22/06:30pm 12.5 5.1 8.4 76 2.0 NW 37 52 20 28 1008.2 1008.3 0.2
22/06:12pm 12.6 5.2 8.5 76 2.0 NW 37 56 20 30 1008.1 1008.2 0.2
22/06:00pm 12.5 4.8 8.6 77 2.0 NW 39 52 21 28 1008.2 1008.3 0.2
22/05:30pm 12.4 5.5 8.7 78 1.9 NW 35 46 19 25 1008.1 1008.2 0.2
22/05:08pm 12.3 4.9 8.4 77 1.9 NW 37 56 20 30 1008.3 1008.4 0.2
22/05:00pm 12.4 5.5 8.7 78 1.9 NW 35 48 19 26 1008.3 1008.4 0.2
22/04:30pm 12.6 5.7 8.7 77 2.0 NW 35 54 19 29 1008.4 1008.5 0.2
22/04:29pm 12.6 5.7 8.7 77 2.0 NW 35 54 19 29 1008.4 1008.5 0.2
22/04:00pm 12.9 6.0 8.8 76 2.1 NW 35 48 19 26 1008.6 1008.7 0.2
22/03:30pm 12.9 5.9 8.4 74 2.2 NW 35 50 19 27 1008.9 1009.0 0.2
22/03:03pm 12.6 4.7 7.9 73 2.3 NW 39 57 21 31 1009.1 1009.2 0.2
22/03:00pm 12.6 4.3 7.9 73 2.3 NW 41 52 22 28 1009.2 1009.3 0.2
22/02:39pm 12.7 5.1 7.6 71 2.5 NW 37 56 20 30 1009.4 1009.5 0.2
22/02:30pm 12.8 4.9 7.9 72 2.4 NW 39 52 21 28 1009.5 1009.6 0.2
22/02:00pm 12.9 5.6 7.1 68 2.8 NW 35 52 19 28 1009.7 1009.8 0.2
22/01:36pm 13.1 6.0 8.2 72 2.4 NW 35 54 19 29 1010.2 1010.3 0.2
22/01:30pm 12.7 4.7 7.6 71 2.5 NNW 39 52 21 28 1010.4 1010.5 0.2
22/01:00pm 12.7 4.5 8.0 73 2.3 NNW 41 48 22 26 1010.9 1011.0 0.2
22/12:30pm 12.2 2.8 7.1 71 2.5 NNW 46 65 25 35 1011.6 1011.7 0.2
22/12:26pm 12.3 2.9 7.2 71 2.5 NNW 46 65 25 35 1011.7 1011.8 0.2
22/12:00pm 12.4 2.9 6.9 69 2.7 NNW 46 59 25 32 1012.0 1012.1 0.2
22/11:30am 11.9 2.9 7.4 74 2.2 NNW 44 54 24 29 1012.6 1012.7 0.2
22/11:00am 12.0 2.9 6.9 71 2.4 NNW 44 54 24 29 1013.0 1013.1 0.2
22/10:30am 11.9 3.2 7.6 75 2.1 NNW 43 57 23 31 1013.2 1013.3 0.0
22/10:00am 11.9 2.9 7.2 73 2.3 NNW 44 57 24 31 1013.7 1013.8 0.0
22/09:30am 11.5 3.2 7.6 77 1.9 NNW 41 56 22 30 1014.0 1014.1 0.0
22/09:09am 11.1 3.1 7.4 78 1.8 NNW 39 57 21 31 1014.4 1014.5 0.0
22/09:00am 11.0 3.9 7.9 81 1.5 NNW 35 46 19 25 1014.2 1014.3 0.2
22/08:30am 11.2 3.5 7.3 77 1.9 NNW 37 46 20 25 1014.2 1014.3 0.2
22/08:00am 11.2 3.6 7.5 78 1.8 NNW 37 50 20 27 1014.4 1014.5 0.2
22/07:30am 11.6 3.8 6.7 72 2.3 NNW 37 50 20 27 1014.5 1014.6 0.2
22/07:00am 11.4 3.4 5.9 69 2.6 NNW 37 48 20 26 1014.7 1014.8 0.2
22/06:30am 11.2 3.3 6.3 72 2.3 NNW 37 46 20 25 1014.7 1014.8 0.2
22/06:00am 11.0 3.5 6.4 73 2.2 NNW 35 43 19 23 1014.9 1015.0 0.2
22/05:30am 10.7 3.5 6.1 73 2.1 NNW 33 43 18 23 1015.0 1015.1 0.2
22/05:00am 10.6 3.1 6.2 74 2.1 NNW 35 43 19 23 1015.2 1015.3 0.2
22/04:30am 10.6 3.5 6.4 75 2.0 NNW 33 43 18 23 1015.7 1015.8 0.2
22/04:00am 10.5 2.9 5.9 73 2.1 NNW 35 44 19 24 1015.8 1015.9 0.2
22/03:30am 10.4 2.2 5.0 69 2.5 NNW 37 44 20 24 1016.1 1016.2 0.2
22/03:00am 10.3 3.0 4.7 68 2.5 NNW 32 39 17 21 1016.3 1016.4 0.2
22/02:30am 10.4 2.6 4.8 68 2.5 NNW 35 43 19 23 1016.8 1016.9 0.2
22/02:00am 10.6 3.0 5.8 72 2.2 NNW 35 43 19 23 1016.9 1017.0 0.2
22/01:30am 10.6 3.0 6.0 73 2.1 NNW 35 43 19 23 1017.2 1017.3 0.2
22/01:00am 10.9 3.7 5.7 70 2.4 NNW 33 39 18 21 1017.6 1017.8 0.2
22/12:30am 10.9 3.2 5.2 68 2.6 NNW 35 50 19 27 1018.0 1018.1 0.2
22/12:00am 10.9 2.8 5.2 68 2.6 NNW 37 48 20 26 1018.6 1018.7 0.2
 
Date/Time
EST
Temp
°C
App
Temp
°C
Dew
Point
°C
Rel
Hum
%
Delta-T
°C
Wind Press
QNH
hPa
Press
MSL
hPa
Rain since
9am
mm
Dir  Spd
km/h
Gust
km/h
Spd
kts
Gust
kts
21/11:30pm 10.9 4.5 6.8 76 1.9 NNW 30 41 16 22 1019.0 1019.1 0.2
21/11:00pm 10.6 4.1 6.6 76 1.9 NNW 30 39 16 21 1019.4 1019.5 0.2
21/10:30pm 10.4 3.4 6.2 75 2.0 N 32 41 17 22 1019.4 1019.5 0.2
21/10:00pm 10.4 4.2 6.2 75 2.0 N 28 37 15 20 1019.7 1019.8 0.2
21/09:30pm 10.1 3.5 5.9 75 1.9 N 30 35 16 19 1019.8 1019.9 0.2
21/09:00pm 10.0 4.1 6.0 76 1.8 N 26 33 14 18 1019.9 1020.0 0.2
21/08:30pm 9.0 4.4 6.3 83 1.2 NNE 20 28 11 15 1019.9 1020.0 0.2
21/08:00pm 9.1 3.5 5.5 78 1.6 N 24 28 13 15 1019.8 1019.9 0.2
21/07:30pm 8.9 3.3 5.5 79 1.5 NNE 24 28 13 15 1019.9 1020.0 0.2
21/07:00pm 9.1 3.5 5.5 78 1.6 NNE 24 30 13 16 1020.0 1020.1 0.2
21/06:30pm 8.8 4.0 5.7 81 1.4 NNE 20 24 11 13 1020.0 1020.1 0.2
21/06:00pm 8.4 4.0 4.8 78 1.6 NNE 17 22 9 12 1019.8 1019.9 0.2
21/05:30pm 8.3 4.5 3.8 73 2.0 N 13 15 7 8 1019.9 1020.0 0.2
21/05:00pm 9.5 5.8 4.3 70 2.3 NNW 13 17 7 9 1020.2 1020.3 0.2
21/04:30pm 10.6 6.7 5.2 69 2.5 NNW 15 20 8 11 1020.4 1020.5 0.2
21/04:00pm 10.7 6.3 5.0 68 2.6 NNW 17 22 9 12 1020.6 1020.7 0.2
21/03:30pm 10.8 6.9 5.3 69 2.5 NNW 15 20 8 11 1020.7 1020.8 0.2
21/03:00pm 11.0 6.9 6.0 71 2.3 NNW 17 22 9 12 1021.0 1021.1 0.2
21/02:30pm 10.8 6.8 6.6 75 2.0 NNW 17 24 9 13 1021.1 1021.2 0.2
21/02:00pm 10.9 7.8 7.4 79 1.7 N 13 19 7 10 1021.2 1021.3 0.2
21/01:30pm 11.3 8.4 8.3 82 1.5 NNE 13 17 7 9 1021.3 1021.4 0.2
21/01:00pm 11.1 8.3 8.7 85 1.2 NE 13 15 7 8 1021.6 1021.7 0.2
21/12:33pm 11.1 8.2 8.1 82 1.5 NE 13 19 7 10 1021.6 1021.7 0.2
21/12:30pm 11.1 8.2 8.3 83 1.4 NE 13 19 7 10 1021.6 1021.7 0.2
21/12:13pm 11.0 9.3 8.2 83 1.4 NE 7 15 4 8 1022.0 1022.1 0.2
21/12:00pm 10.2 7.9 7.6 84 1.2 NNW 9 15 5 8 1022.4 1022.5 0.2
21/11:41am 10.5 8.9 8.9 90 0.8 N 7 11 4 6 1022.8 1022.9 0.2
21/11:30am 10.1 8.7 8.9 92 0.6 N 6 11 3 6 1022.9 1023.0 0.2
21/11:19am 10.5 9.3 9.7 95 0.4 ENE 6 9 3 5 1023.1 1023.2 0.2
21/11:16am 10.3 9.5 9.5 95 0.4 E 4 9 2 5 1023.0 1023.1 0.2
21/11:00am 9.4 7.4 8.6 95 0.4 NE 9 13 5 7 1023.2 1023.3 0.2
21/10:30am 9.1 6.9 8.0 93 0.5 NE 9 13 5 7 1023.5 1023.6 0.0
21/10:15am 8.9 6.7 7.7 92 0.6 ENE 9 11 5 6 1023.4 1023.5 0.0
21/10:00am 9.4 7.3 8.2 92 0.6 ENE 9 11 5 6 1023.4 1023.5 0.0
21/09:30am 8.5 6.1 6.8 89 0.8 NNE 9 11 5 6 1023.2 1023.3 0.0
21/09:22am 8.6 5.7 6.6 87 0.9 NNE 11 13 6 7 1023.2 1023.3 0.0
21/09:07am 8.8 6.2 5.9 82 1.3 NNW 9 17 5 9 1023.2 1023.3 0.0
21/09:00am 9.4 8.2 6.3 81 1.4 WNW 2 9 1 5 1023.2 1023.3 1.2
21/08:30am 8.7 6.9 5.4 80 1.5 WNW 4 7 2 4 1022.9 1023.0 1.2
21/08:00am 6.9 4.4 3.5 79 1.4 SSE 6 7 3 4 1022.7 1022.8 1.2
21/07:30am 6.2 4.6 2.7 78 1.4 CALM 0 0 0 0 1022.5 1022.6 1.2
21/07:00am 5.9 4.3 2.4 78 1.4 CALM 0 2 0 1 1022.4 1022.5 1.2
21/06:30am 6.1 3.1 2.2 76 1.6 SSE 7 7 4 4 1022.2 1022.3 1.2
21/06:00am 6.9 5.4 3.0 76 1.6 CALM 0 0 0 0 1022.2 1022.3 1.2
21/05:30am 7.0 3.8 3.1 76 1.6 SSE 9 11 5 6 1021.9 1022.0 1.2
21/05:00am 6.5 3.3 3.1 79 1.4 SSE 9 11 5 6 1021.7 1021.8 1.2

Other Formats:

Comma delimited format used in spreadsheet applications
http://www.bom.gov.au/fwo/IDT60801/IDT60801.95954.axf

JavaScript Object Notation format (JSON) in row-major order
http://www.bom.gov.au/fwo/IDT60801/IDT60801.95954.json